createdAt,value
2017-09-05T00:01:41.336Z,15.20
2017-09-05T00:04:08.894Z,15.30
2017-09-05T00:06:36.400Z,15.20
2017-09-05T00:09:03.916Z,15.20
2017-09-05T00:11:42.178Z,15.30
2017-09-05T00:14:26.333Z,15.30
2017-09-05T00:16:54.543Z,15.30
2017-09-05T00:19:25.867Z,15.30
2017-09-05T00:21:54.342Z,15.30
2017-09-05T00:24:21.839Z,15.30
2017-09-05T00:26:49.359Z,15.30
2017-09-05T00:29:17.162Z,15.30
2017-09-05T00:31:44.671Z,15.30
2017-09-05T00:34:12.183Z,15.20
2017-09-05T00:36:39.731Z,15.30
2017-09-05T00:39:07.235Z,15.30
2017-09-05T00:41:34.747Z,15.40
2017-09-05T00:44:02.322Z,15.40
2017-09-05T00:46:29.833Z,15.50
2017-09-05T00:48:57.394Z,15.50
2017-09-05T00:51:25.208Z,15.40
2017-09-05T00:53:52.720Z,15.40
2017-09-05T00:56:20.236Z,15.30
2017-09-05T00:58:47.799Z,15.20
2017-09-05T01:01:15.313Z,15.10
2017-09-05T01:03:42.831Z,15.10
2017-09-05T01:06:10.394Z,15.00
2017-09-05T01:08:37.893Z,14.90
2017-09-05T01:11:05.408Z,14.80
2017-09-05T01:13:32.978Z,14.80
2017-09-05T01:16:00.500Z,14.60
2017-09-05T01:18:28.024Z,14.70
2017-09-05T01:20:55.563Z,14.70
2017-09-05T01:23:23.067Z,14.60
2017-09-05T01:25:50.606Z,14.60
2017-09-05T01:28:18.180Z,14.60
2017-09-05T01:30:45.687Z,14.60
2017-09-05T01:33:13.193Z,14.70
2017-09-05T01:35:40.743Z,14.70
2017-09-05T01:38:08.246Z,14.70
2017-09-05T01:40:35.759Z,14.70
2017-09-05T01:43:03.734Z,14.60
2017-09-05T01:45:31.248Z,14.60
2017-09-05T01:47:58.762Z,14.60
2017-09-05T01:50:26.324Z,14.70
2017-09-05T01:52:53.831Z,14.60
2017-09-05T01:55:21.372Z,14.60
2017-09-05T01:57:48.968Z,14.60
2017-09-05T02:00:16.475Z,14.70
2017-09-05T02:02:43.977Z,14.60
2017-09-05T02:05:11.799Z,14.50
2017-09-05T02:07:39.453Z,14.60
2017-09-05T02:10:07.124Z,14.60
2017-09-05T02:12:34.678Z,14.60
2017-09-05T02:15:02.191Z,14.50
2017-09-05T02:17:29.704Z,14.60
2017-09-05T02:19:57.518Z,14.50
2017-09-05T02:22:25.024Z,14.40
2017-09-05T02:24:52.535Z,14.30
2017-09-05T02:27:20.355Z,14.30
2017-09-05T02:29:47.862Z,14.30
2017-09-05T02:32:15.368Z,14.30
2017-09-05T02:34:42.956Z,14.40
2017-09-05T02:37:11.233Z,14.50
2017-09-05T02:39:38.748Z,14.50
2017-09-05T02:42:06.555Z,14.50
2017-09-05T02:44:34.054Z,14.50
2017-09-05T02:47:01.568Z,14.50
2017-09-05T02:49:29.132Z,14.50
2017-09-05T02:51:56.638Z,14.50
2017-09-05T02:54:24.161Z,14.50
2017-09-05T02:56:51.973Z,14.50
2017-09-05T02:59:19.495Z,14.50
2017-09-05T03:01:46.999Z,14.40
2017-09-05T03:04:14.857Z,14.40
2017-09-05T03:06:42.374Z,14.40
2017-09-05T03:09:09.891Z,14.40
2017-09-05T03:11:37.459Z,14.50
2017-09-05T03:14:04.971Z,14.40
2017-09-05T03:16:32.470Z,14.40
2017-09-05T03:19:00.463Z,14.40
2017-09-05T03:21:27.763Z,14.40
2017-09-05T03:23:55.275Z,14.50
2017-09-05T03:26:23.067Z,14.50
2017-09-05T03:28:50.574Z,14.40
2017-09-05T03:31:18.091Z,14.40
2017-09-05T03:33:45.640Z,14.40
2017-09-05T03:36:13.144Z,14.30
2017-09-05T03:38:40.649Z,14.30
2017-09-05T03:41:08.451Z,14.30
2017-09-05T03:43:35.958Z,14.30
2017-09-05T03:46:03.464Z,14.30
2017-09-05T03:48:31.016Z,14.30
2017-09-05T03:50:58.520Z,14.30
2017-09-05T03:53:26.027Z,14.40
2017-09-05T03:55:53.589Z,14.40
2017-09-05T03:58:21.095Z,14.40
2017-09-05T04:00:48.604Z,14.40
2017-09-05T04:03:16.396Z,14.40
2017-09-05T04:05:43.904Z,14.30
2017-09-05T04:08:11.415Z,14.20
2017-09-05T04:10:38.957Z,14.10
2017-09-05T04:13:06.506Z,14.00
2017-09-05T04:15:34.037Z,13.90
2017-09-05T04:18:01.592Z,14.00
2017-09-05T04:20:29.111Z,14.00
2017-09-05T04:22:56.616Z,14.00
2017-09-05T04:25:24.176Z,14.10
2017-09-05T04:27:51.675Z,14.20
2017-09-05T04:30:19.225Z,14.30
2017-09-05T04:32:46.781Z,14.30
2017-09-05T04:35:14.287Z,14.30
2017-09-05T04:37:41.800Z,14.20
2017-09-05T04:40:09.358Z,14.20
2017-09-05T04:42:36.868Z,14.10
2017-09-05T04:45:04.410Z,14.10
2017-09-05T04:47:32.852Z,14.10
2017-09-05T04:50:00.351Z,14.10
2017-09-05T04:52:27.863Z,14.10
2017-09-05T04:54:55.420Z,14.00
2017-09-05T04:57:22.935Z,14.10
2017-09-05T04:59:50.443Z,14.00
2017-09-05T05:02:18.018Z,14.10
2017-09-05T05:04:45.542Z,14.20
2017-09-05T05:07:13.077Z,14.30
2017-09-05T05:09:40.627Z,14.40
2017-09-05T05:12:08.136Z,14.40
2017-09-05T05:14:35.643Z,14.40
2017-09-05T05:17:03.444Z,14.40
2017-09-05T05:19:30.967Z,14.40
2017-09-05T05:21:58.488Z,14.50
2017-09-05T05:24:26.040Z,14.60
2017-09-05T05:26:53.567Z,14.70
2017-09-05T05:29:21.079Z,14.80
2017-09-05T05:31:48.640Z,14.80
2017-09-05T05:34:16.182Z,14.90
2017-09-05T05:36:43.692Z,15.00
2017-09-05T05:39:11.256Z,15.10
2017-09-05T05:41:38.770Z,15.10
2017-09-05T05:44:06.287Z,15.20
2017-09-05T05:46:33.889Z,15.20
2017-09-05T05:49:01.395Z,15.20
2017-09-05T05:51:28.915Z,15.20
2017-09-05T05:53:56.916Z,15.40
2017-09-05T05:56:24.430Z,15.50
2017-09-05T05:58:51.940Z,15.50
2017-09-05T06:01:19.498Z,15.50
2017-09-05T06:03:47.010Z,15.80
2017-09-05T06:06:14.527Z,15.90
2017-09-05T06:08:42.085Z,16.20
2017-09-05T06:11:09.604Z,16.30
2017-09-05T06:13:37.119Z,16.50
2017-09-05T06:16:04.676Z,16.60
2017-09-05T06:18:32.183Z,16.80
2017-09-05T06:20:59.700Z,16.70
2017-09-05T06:23:27.246Z,16.80
2017-09-05T06:25:54.759Z,16.80
2017-09-05T06:28:22.267Z,17.00
2017-09-05T06:30:50.160Z,17.00
2017-09-05T06:33:17.663Z,16.90
2017-09-05T06:35:45.174Z,16.90
2017-09-05T06:38:12.738Z,16.90
2017-09-05T06:40:40.239Z,16.90
2017-09-05T06:43:07.743Z,16.60
2017-09-05T06:45:35.295Z,16.70
2017-09-05T06:48:02.805Z,16.80
2017-09-05T06:50:30.307Z,17.10
2017-09-05T06:52:57.855Z,17.20
2017-09-05T06:55:25.355Z,17.50
2017-09-05T06:57:52.880Z,17.60
2017-09-05T07:00:20.439Z,17.70
2017-09-05T07:02:47.945Z,18.00
2017-09-05T07:05:15.465Z,18.00
2017-09-05T07:07:43.023Z,18.10
2017-09-05T07:10:10.526Z,18.40
2017-09-05T07:12:38.030Z,18.70
2017-09-05T07:15:05.859Z,18.90
2017-09-05T07:17:33.362Z,19.00
2017-09-05T07:20:00.864Z,19.20
2017-09-05T07:22:28.448Z,19.50
2017-09-05T07:24:55.952Z,19.80
2017-09-05T07:27:23.474Z,19.80
2017-09-05T07:29:51.031Z,19.90
2017-09-05T07:32:18.539Z,20.20
2017-09-05T07:34:46.042Z,20.50
2017-09-05T07:37:13.601Z,21.00
2017-09-05T07:39:41.103Z,21.40
2017-09-05T07:42:08.611Z,21.20
2017-09-05T07:44:36.155Z,21.70
2017-09-05T07:47:03.660Z,21.90
2017-09-05T07:49:31.175Z,22.00
2017-09-05T07:51:58.730Z,21.60
2017-09-05T07:54:26.243Z,21.70
2017-09-05T07:56:53.755Z,22.50
2017-09-05T07:59:21.305Z,22.50
2017-09-05T08:01:48.811Z,23.00
2017-09-05T08:04:16.311Z,23.60
2017-09-05T08:06:43.869Z,24.40
2017-09-05T08:09:11.367Z,24.10
2017-09-05T08:11:38.884Z,23.80
2017-09-05T08:14:06.447Z,23.10
2017-09-05T08:16:33.947Z,22.60
2017-09-05T08:19:01.468Z,22.70
2017-09-05T08:21:29.011Z,23.30
2017-09-05T08:23:56.526Z,23.80
2017-09-05T08:26:24.039Z,24.40
2017-09-05T08:28:51.939Z,25.00
2017-09-05T08:31:19.451Z,24.60
2017-09-05T08:33:46.971Z,24.90
2017-09-05T08:36:14.768Z,25.00
2017-09-05T08:38:42.276Z,24.70
2017-09-05T08:41:09.783Z,24.00
2017-09-05T08:43:37.344Z,23.40
2017-09-05T08:46:04.854Z,23.60
2017-09-05T08:48:32.350Z,23.40
2017-09-05T08:50:59.906Z,23.30
2017-09-05T08:53:27.400Z,23.30
2017-09-05T08:55:54.912Z,23.70
2017-09-05T08:58:22.539Z,23.50
2017-09-05T09:00:50.047Z,23.50
2017-09-05T09:03:17.551Z,23.70
2017-09-05T09:05:45.138Z,24.20
2017-09-05T09:08:12.628Z,25.80
2017-09-05T09:10:40.128Z,27.00
2017-09-05T09:13:07.683Z,26.90
2017-09-05T09:15:35.188Z,27.10
2017-09-05T09:18:02.687Z,27.60
2017-09-05T09:20:30.236Z,27.20
2017-09-05T09:22:57.735Z,27.60
2017-09-05T09:25:25.237Z,27.80
2017-09-05T09:27:52.787Z,27.20
2017-09-05T09:30:20.290Z,27.80
2017-09-05T09:32:47.796Z,27.70
2017-09-05T09:35:15.765Z,28.40
2017-09-05T09:37:43.271Z,28.50
2017-09-05T09:40:10.781Z,28.10
2017-09-05T09:42:38.335Z,28.60
2017-09-05T09:45:05.826Z,28.80
2017-09-05T09:47:33.327Z,29.90
2017-09-05T09:50:00.887Z,30.40
2017-09-05T09:52:28.399Z,30.30
2017-09-05T09:54:55.903Z,28.60
2017-09-05T09:57:23.449Z,29.00
2017-09-05T09:59:50.952Z,29.30
2017-09-05T10:02:18.457Z,28.90
2017-09-05T10:04:46.012Z,28.70
2017-09-05T10:07:13.515Z,28.90
2017-09-05T10:09:41.019Z,29.10
2017-09-05T10:12:08.919Z,29.40
2017-09-05T10:14:36.424Z,29.80
2017-09-05T10:17:03.927Z,30.50
2017-09-05T10:19:31.465Z,30.60
2017-09-05T10:21:58.967Z,31.00
2017-09-05T10:24:26.467Z,31.10
2017-09-05T10:26:54.023Z,31.40
2017-09-05T10:29:21.522Z,31.10
2017-09-05T10:31:49.028Z,30.60
2017-09-05T10:34:16.584Z,31.60
2017-09-05T10:36:44.079Z,31.70
2017-09-05T10:39:12.343Z,31.10
2017-09-05T10:41:39.887Z,31.10
2017-09-05T10:44:07.395Z,30.00
2017-09-05T10:46:34.897Z,30.40
2017-09-05T10:49:02.883Z,31.30
2017-09-05T10:51:30.411Z,31.90
2017-09-05T10:53:57.903Z,31.20
2017-09-05T10:56:25.447Z,31.80
2017-09-05T10:58:52.961Z,30.90
2017-09-05T11:01:20.498Z,31.30
2017-09-05T11:03:48.047Z,29.40
2017-09-05T11:06:15.551Z,29.50
2017-09-05T11:08:43.046Z,29.90
2017-09-05T11:11:10.836Z,30.40
2017-09-05T11:13:38.341Z,30.50
2017-09-05T11:16:05.849Z,30.10
2017-09-05T11:18:33.395Z,30.90
2017-09-05T11:21:00.890Z,32.30
2017-09-05T11:23:28.384Z,30.90
2017-09-05T11:25:56.023Z,29.60
2017-09-05T11:28:23.549Z,28.80
2017-09-05T11:30:51.067Z,28.80
2017-09-05T11:33:18.633Z,29.00
2017-09-05T11:35:46.139Z,28.70
2017-09-05T11:38:13.643Z,28.70
2017-09-05T11:40:41.192Z,28.00
2017-09-05T11:43:08.696Z,27.40
2017-09-05T11:45:36.195Z,27.70
2017-09-05T11:48:04.076Z,28.00
2017-09-05T11:50:31.575Z,27.80
2017-09-05T11:52:59.079Z,28.80
2017-09-05T11:55:26.612Z,29.00
2017-09-05T11:57:54.106Z,29.30
2017-09-05T12:00:21.615Z,29.80
2017-09-05T12:02:49.184Z,31.50
2017-09-05T12:05:16.691Z,31.90
2017-09-05T12:07:44.192Z,32.40
2017-09-05T12:10:12.068Z,32.20
2017-09-05T12:12:39.566Z,31.50
2017-09-05T12:15:07.071Z,31.40
2017-09-05T12:17:34.624Z,30.90
2017-09-05T12:20:02.133Z,31.10
2017-09-05T12:22:29.627Z,31.10
2017-09-05T12:24:57.178Z,30.00
2017-09-05T12:27:24.672Z,28.90
2017-09-05T12:29:52.182Z,28.50
2017-09-05T12:32:19.739Z,27.80
2017-09-05T12:34:47.244Z,27.60
2017-09-05T12:37:14.746Z,27.30
2017-09-05T12:39:42.306Z,27.20
2017-09-05T12:42:09.819Z,27.00
2017-09-05T12:44:37.324Z,27.10
2017-09-05T12:47:04.887Z,27.30
2017-09-05T12:49:32.386Z,26.90
2017-09-05T12:51:59.891Z,26.80
2017-09-05T12:54:27.452Z,27.20
2017-09-05T12:56:54.965Z,27.50
2017-09-05T12:59:22.459Z,27.90
2017-09-05T13:01:50.024Z,28.10
2017-09-05T13:04:17.535Z,27.90
2017-09-05T13:06:45.037Z,28.10
2017-09-05T13:09:12.951Z,28.20
2017-09-05T13:11:40.459Z,28.40
2017-09-05T13:14:07.959Z,28.30
2017-09-05T13:16:35.517Z,28.50
2017-09-05T13:19:03.021Z,28.00
2017-09-05T13:21:30.518Z,27.70
2017-09-05T13:23:58.367Z,27.30
2017-09-05T13:26:25.875Z,27.10
2017-09-05T13:28:53.383Z,27.10
2017-09-05T13:31:20.946Z,26.80
2017-09-05T13:33:48.451Z,26.60
2017-09-05T13:36:15.955Z,26.50
2017-09-05T13:38:43.503Z,26.10
2017-09-05T13:41:11.007Z,25.90
2017-09-05T13:43:38.508Z,25.50
2017-09-05T13:46:06.072Z,25.70
2017-09-05T13:48:33.589Z,26.10
2017-09-05T13:51:01.094Z,26.10
2017-09-05T13:53:28.647Z,26.20
2017-09-05T13:55:56.164Z,26.40
2017-09-05T13:58:23.667Z,26.90
2017-09-05T14:00:51.211Z,27.60
2017-09-05T14:03:18.714Z,28.40
2017-09-05T14:05:46.219Z,28.80
2017-09-05T14:08:13.771Z,29.60
2017-09-05T14:10:41.275Z,30.60
2017-09-05T14:13:08.771Z,30.30
2017-09-05T14:15:36.319Z,29.80
2017-09-05T14:18:04.583Z,31.60
2017-09-05T14:20:32.076Z,31.50
2017-09-05T14:22:59.603Z,32.20
2017-09-05T14:25:27.099Z,32.60
2017-09-05T14:27:54.605Z,33.10
2017-09-05T14:30:22.164Z,33.40
2017-09-05T14:32:49.671Z,33.20
2017-09-05T14:35:17.175Z,32.40
2017-09-05T14:37:44.721Z,31.60
2017-09-05T14:40:12.219Z,31.20
2017-09-05T14:42:39.727Z,30.00
2017-09-05T14:45:07.537Z,29.50
2017-09-05T14:47:35.115Z,28.50
2017-09-05T14:50:02.627Z,28.90
2017-09-05T14:52:30.180Z,28.50
2017-09-05T14:54:57.687Z,27.70
2017-09-05T14:57:25.197Z,27.40
2017-09-05T14:59:52.734Z,27.00
2017-09-05T15:02:20.245Z,26.70
2017-09-05T15:04:47.521Z,26.30
2017-09-05T15:07:14.840Z,26.00
2017-09-05T15:09:42.353Z,25.70
2017-09-05T15:12:09.851Z,25.70
2017-09-05T15:14:37.411Z,26.30
2017-09-05T15:17:05.687Z,27.10
2017-09-05T15:19:33.188Z,27.10
2017-09-05T15:22:00.747Z,27.80
2017-09-05T15:24:28.247Z,29.00
2017-09-05T15:26:55.762Z,29.10
2017-09-05T15:29:23.334Z,29.10
2017-09-05T15:31:50.836Z,28.90
2017-09-05T15:34:18.334Z,27.90
2017-09-05T15:36:45.871Z,27.50
2017-09-05T15:39:13.371Z,26.60
2017-09-05T15:41:40.916Z,26.60
2017-09-05T15:44:08.424Z,26.70
2017-09-05T15:46:35.923Z,26.50
2017-09-05T15:49:03.488Z,26.30
2017-09-05T15:51:30.991Z,26.50
2017-09-05T15:53:58.495Z,26.10
2017-09-05T15:56:26.050Z,25.90
2017-09-05T15:58:53.551Z,25.80
2017-09-05T16:01:21.070Z,25.70
2017-09-05T16:03:48.623Z,25.70
2017-09-05T16:06:16.960Z,25.60
2017-09-05T16:08:44.459Z,25.60
2017-09-05T16:11:12.016Z,25.30
2017-09-05T16:13:39.592Z,25.30
2017-09-05T16:16:07.161Z,25.30
2017-09-05T16:18:34.708Z,25.10
2017-09-05T16:21:02.287Z,25.10
2017-09-05T16:23:29.797Z,25.20
2017-09-05T16:25:57.370Z,25.20
2017-09-05T16:28:25.643Z,25.10
2017-09-05T16:30:53.158Z,25.10
2017-09-05T16:33:20.805Z,25.20
2017-09-05T16:35:48.298Z,25.00
2017-09-05T16:38:15.847Z,25.00
2017-09-05T16:40:43.387Z,25.10
2017-09-05T16:43:10.895Z,25.00
2017-09-05T16:45:38.456Z,25.00
2017-09-05T16:48:06.097Z,24.80
2017-09-05T16:50:33.599Z,24.60
2017-09-05T16:53:01.095Z,24.70
2017-09-05T16:55:28.642Z,24.40
2017-09-05T16:57:56.343Z,24.10
2017-09-05T17:00:23.896Z,24.10
2017-09-05T17:02:51.516Z,24.00
2017-09-05T17:05:19.015Z,23.90
2017-09-05T17:07:47.533Z,24.00
2017-09-05T17:10:15.275Z,23.90
2017-09-05T17:12:42.832Z,24.00
2017-09-05T17:15:10.400Z,24.00
2017-09-05T17:17:38.013Z,24.00
2017-09-05T17:20:05.710Z,23.50
2017-09-05T17:22:33.288Z,23.40
2017-09-05T17:25:01.030Z,23.40
2017-09-05T17:27:28.630Z,23.10
2017-09-05T17:29:56.214Z,23.00
2017-09-05T17:32:23.784Z,23.10
2017-09-05T17:34:51.348Z,23.00
2017-09-05T17:37:18.924Z,23.00
2017-09-05T17:39:46.553Z,23.00
2017-09-05T17:42:14.359Z,22.90
2017-09-05T17:44:41.935Z,22.90
2017-09-05T17:47:10.625Z,22.80
2017-09-05T17:49:38.323Z,22.80
2017-09-05T17:52:05.907Z,22.80
2017-09-05T17:54:33.528Z,22.70
2017-09-05T17:57:01.089Z,22.70
2017-09-05T17:59:28.688Z,22.60
2017-09-05T18:01:56.267Z,22.50
2017-09-05T18:04:23.864Z,22.30
2017-09-05T18:06:51.554Z,22.40
2017-09-05T18:09:19.169Z,22.10
2017-09-05T18:11:46.877Z,21.90
2017-09-05T18:14:14.584Z,21.70
2017-09-05T18:16:42.292Z,21.70
2017-09-05T18:19:10.005Z,21.50
2017-09-05T18:21:37.703Z,21.40
2017-09-05T18:24:05.328Z,21.40
2017-09-05T18:26:32.896Z,21.20
2017-09-05T18:29:00.497Z,21.10
2017-09-05T18:31:28.239Z,21.00
2017-09-05T18:33:55.840Z,20.80
2017-09-05T18:36:23.571Z,20.80
2017-09-05T18:38:51.196Z,20.80
2017-09-05T18:41:18.889Z,20.70
2017-09-05T18:43:46.604Z,20.70
2017-09-05T18:46:14.221Z,20.80
2017-09-05T18:48:41.802Z,20.80
2017-09-05T18:51:09.386Z,20.80
2017-09-05T18:53:36.980Z,20.80
2017-09-05T18:56:04.483Z,20.80
2017-09-05T18:58:32.182Z,20.70
2017-09-05T19:00:59.742Z,20.60
2017-09-05T19:03:27.442Z,20.60
2017-09-05T19:05:55.055Z,20.60
2017-09-05T19:08:22.803Z,20.60
2017-09-05T19:10:50.499Z,20.60
2017-09-05T19:13:18.063Z,20.60
2017-09-05T19:15:46.041Z,20.50
2017-09-05T19:18:13.745Z,20.40
2017-09-05T19:20:41.446Z,20.30
2017-09-05T19:23:09.416Z,20.20
2017-09-05T19:25:36.933Z,20.30
2017-09-05T19:28:04.625Z,20.20
2017-09-05T19:30:32.242Z,20.20
2017-09-05T19:32:59.941Z,20.30
2017-09-05T19:35:27.512Z,20.40
2017-09-05T19:37:55.266Z,20.50
2017-09-05T19:40:23.604Z,20.20
2017-09-05T19:42:51.185Z,20.30
2017-09-05T19:45:19.138Z,20.40
2017-09-05T19:47:46.843Z,20.50
2017-09-05T19:50:14.551Z,20.40
2017-09-05T19:52:42.555Z,20.40
2017-09-05T19:55:10.251Z,20.40
2017-09-05T19:57:37.760Z,20.40
2017-09-05T20:00:05.500Z,20.30
2017-09-05T20:02:33.347Z,20.40
2017-09-05T20:05:00.920Z,20.30
2017-09-05T20:07:28.891Z,20.10
2017-09-05T20:09:56.484Z,20.00
2017-09-05T20:12:24.184Z,19.80
2017-09-05T20:14:52.287Z,19.70
2017-09-05T20:17:19.872Z,19.60
2017-09-05T20:19:47.443Z,19.50
2017-09-05T20:22:15.037Z,19.40
2017-09-05T20:24:42.742Z,19.40
2017-09-05T20:27:10.316Z,19.30
2017-09-05T20:29:38.067Z,19.20
2017-09-05T20:32:05.636Z,19.20
2017-09-05T20:34:33.353Z,19.30
2017-09-05T20:37:00.969Z,19.30
2017-09-05T20:39:28.532Z,19.20
2017-09-05T20:41:56.080Z,19.10
2017-09-05T20:44:23.657Z,19.10
2017-09-05T20:46:51.224Z,19.10
2017-09-05T20:49:18.733Z,19.20
2017-09-05T20:51:46.344Z,19.20
2017-09-05T20:54:13.890Z,19.10
2017-09-05T20:56:41.417Z,19.10
2017-09-05T20:59:09.406Z,19.20
2017-09-05T21:01:36.976Z,19.30
2017-09-05T21:04:04.544Z,19.30
2017-09-05T21:06:32.236Z,19.40
2017-09-05T21:08:59.807Z,19.40
2017-09-05T21:11:27.376Z,19.40
2017-09-05T21:13:55.100Z,19.50
2017-09-05T21:16:22.631Z,19.50
2017-09-05T21:18:50.188Z,19.50
2017-09-05T21:21:17.806Z,19.50
2017-09-05T21:23:45.375Z,19.30
2017-09-05T21:26:12.945Z,19.20
2017-09-05T21:28:40.595Z,19.30
2017-09-05T21:31:08.173Z,19.30
2017-09-05T21:33:35.769Z,19.30
2017-09-05T21:36:03.324Z,19.20
2017-09-05T21:38:30.845Z,19.20
2017-09-05T21:40:58.354Z,19.20
2017-09-05T21:43:25.924Z,19.20
2017-09-05T21:45:53.454Z,19.10
2017-09-05T21:48:21.024Z,18.90
2017-09-05T21:50:48.987Z,18.90
2017-09-05T21:53:16.498Z,19.00
2017-09-05T21:55:44.002Z,19.00
2017-09-05T21:58:11.563Z,19.10
2017-09-05T22:00:39.070Z,19.00
2017-09-05T22:03:06.643Z,18.90
2017-09-05T22:05:34.228Z,18.80
2017-09-05T22:08:01.735Z,18.80
2017-09-05T22:10:29.287Z,18.60
2017-09-05T22:12:56.854Z,18.50
2017-09-05T22:15:30.044Z,18.50
2017-09-05T22:17:57.640Z,18.50
2017-09-05T22:20:30.840Z,18.40
2017-09-05T22:22:58.747Z,18.40
2017-09-05T22:25:31.810Z,18.50
2017-09-05T22:28:05.291Z,18.60
2017-09-05T22:30:32.801Z,18.70
2017-09-05T22:33:00.302Z,18.60
2017-09-05T22:35:28.152Z,18.60
2017-09-05T22:37:55.657Z,18.60
2017-09-05T22:40:23.168Z,18.60
2017-09-05T22:42:50.722Z,18.50
2017-09-05T22:45:18.239Z,18.70
2017-09-05T22:47:45.739Z,18.70
2017-09-05T22:50:13.651Z,18.80
2017-09-05T22:52:41.187Z,18.80
2017-09-05T22:55:08.756Z,18.70
2017-09-05T22:57:36.315Z,18.80
2017-09-05T23:00:03.815Z,18.90
2017-09-05T23:02:31.315Z,18.90
2017-09-05T23:04:58.901Z,18.90
2017-09-05T23:07:26.415Z,18.90
2017-09-05T23:09:54.691Z,18.70
2017-09-05T23:12:22.255Z,18.70
2017-09-05T23:14:49.760Z,18.70
2017-09-05T23:17:17.256Z,18.60
2017-09-05T23:19:44.896Z,18.80
2017-09-05T23:22:12.419Z,18.80
2017-09-05T23:24:39.917Z,18.80
2017-09-05T23:27:07.471Z,18.80
2017-09-05T23:29:34.967Z,18.70
2017-09-05T23:32:02.467Z,18.60
2017-09-05T23:34:30.053Z,18.30
2017-09-05T23:36:57.567Z,18.30
2017-09-05T23:39:25.066Z,18.40
2017-09-05T23:41:52.923Z,18.40
2017-09-05T23:44:20.423Z,18.40
2017-09-05T23:46:47.951Z,18.50
2017-09-05T23:49:15.503Z,18.60
2017-09-05T23:51:43.020Z,18.60
2017-09-05T23:54:10.535Z,18.50
2017-09-05T23:56:38.090Z,18.50
2017-09-05T23:59:05.607Z,18.50
